Time;durP1;ratioP1;P1;durP2;ratioP2;P2;SDS_P1;SDS_P2;PMS_P1;PMS_P2;Temp;Humidity;BMP_temperature;BMP_pressure;BME280_temperature;BME280_humidity;BME280_pressure;Samples;Min_cycle;Max_cycle;Signal;HPM_P1;HPM_P2
2024/01/24 00:01:45;;;;;;;8.00;2.80;;;5.60;95.60;;;4.74;100.00;98641.28;5146503;27;20458;-69
2024/01/24 00:04:13;;;;;;;8.50;2.73;;;5.70;95.90;;;4.73;100.00;98639.59;5142311;27;20568;-71
2024/01/24 00:06:42;;;;;;;5.57;2.80;;;5.70;95.80;;;4.71;100.00;98633.56;5110362;27;20453;-71
2024/01/24 00:09:10;;;;;;;5.23;2.33;;;5.70;95.50;;;4.67;100.00;98645.63;5131254;27;20877;-71
2024/01/24 00:11:38;;;;;;;11.60;2.47;;;5.60;95.70;;;4.41;100.00;98614.41;5117710;27;20456;-72
2024/01/24 00:14:05;;;;;;;9.30;2.67;;;5.70;95.50;;;4.79;100.00;98647.00;5142406;27;20457;-72
2024/01/24 00:16:37;;;;;;;6.07;2.83;;;5.70;95.70;;;4.34;100.00;98570.56;5132557;27;20459;-71
2024/01/24 00:19:05;;;;;;;9.73;2.63;;;5.70;95.40;;;4.80;100.00;98662.06;5146146;27;20502;-72
2024/01/24 00:21:32;;;;;;;9.07;3.03;;;5.80;95.40;;;4.87;100.00;98650.69;5122676;27;20769;-71
2024/01/24 00:24:02;;;;;;;7.47;2.70;;;5.80;95.50;;;4.91;100.00;98644.84;5131009;27;20451;-71
2024/01/24 00:26:29;;;;;;;4.23;2.23;;;5.80;95.20;;;4.87;100.00;98639.97;5144747;27;20469;-71
2024/01/24 00:28:57;;;;;;;14.27;2.47;;;5.80;95.20;;;4.82;100.00;98621.72;5147459;27;20441;-69
2024/01/24 00:31:24;;;;;;;7.23;3.00;;;5.80;95.20;;;4.74;100.00;98625.22;5122805;27;20449;-70
2024/01/24 00:33:56;;;;;;;8.70;2.67;;;5.80;95.00;;;4.38;100.00;98534.47;5146222;27;20944;-70
2024/01/24 00:36:24;;;;;;;10.00;2.77;;;5.80;95.00;;;4.85;100.00;98596.47;5144443;27;20445;-71
2024/01/24 00:38:52;;;;;;;7.73;2.63;;;5.80;95.20;;;4.88;100.00;98612.19;5130901;27;20457;-70
2024/01/24 00:41:21;;;;;;;8.90;2.93;;;5.80;95.30;;;4.99;100.00;98614.56;5147529;27;20485;-71
2024/01/24 00:43:49;;;;;;;5.13;2.40;;;5.90;95.40;;;4.93;100.00;98597.31;5125738;27;21147;-71
2024/01/24 00:46:17;;;;;;;7.20;2.53;;;5.90;94.80;;;4.95;99.90;98581.09;5125281;27;20453;-71
2024/01/24 00:48:45;;;;;;;4.43;1.90;;;5.90;94.50;;;4.96;100.00;98591.63;5113353;27;20521;-71
2024/01/24 00:51:14;;;;;;;6.63;2.40;;;5.90;94.30;;;5.05;99.37;98587.13;5140900;27;20446;-71
2024/01/24 00:53:41;;;;;;;7.93;2.53;;;6.00;94.20;;;5.00;99.92;98592.13;5143902;27;20657;-71
2024/01/24 00:56:10;;;;;;;8.53;2.07;;;6.00;93.90;;;5.06;99.32;98562.00;5143990;27;20495;-71
2024/01/24 00:58:37;;;;;;;7.63;2.50;;;6.00;93.80;;;4.87;99.91;98559.66;5126927;27;20930;-71
2024/01/24 01:01:06;;;;;;;7.50;2.73;;;5.90;93.50;;;4.95;99.69;98554.31;5143369;27;20465;-71
2024/01/24 01:03:35;;;;;;;5.73;2.50;;;6.00;94.00;;;4.98;99.92;98543.25;5146801;27;20445;-71
2024/01/24 01:06:04;;;;;;;4.17;1.90;;;6.00;94.00;;;4.96;99.99;98538.06;5131149;27;20514;-71
2024/01/24 01:08:32;;;;;;;8.37;2.37;;;6.00;94.00;;;5.04;99.70;98539.91;5145190;27;20449;-71
2024/01/24 01:11:02;;;;;;;8.07;2.17;;;6.00;94.30;;;5.01;100.00;98534.06;5147363;27;20498;-71
2024/01/24 01:13:29;;;;;;;5.43;1.93;;;6.00;94.20;;;5.07;100.00;98534.22;5124150;27;21046;-71
2024/01/24 01:15:57;;;;;;;4.93;2.50;;;6.00;94.30;;;5.05;99.97;98525.50;5117587;27;20469;-73
2024/01/24 01:18:24;;;;;;;5.73;2.30;;;6.10;94.10;;;4.99;99.61;98539.59;5141445;27;20802;-72
2024/01/24 01:20:52;;;;;;;8.60;2.63;;;6.00;94.00;;;5.06;99.43;98537.88;5146387;27;20821;-72
2024/01/24 01:23:19;;;;;;;6.30;1.80;;;6.10;94.00;;;5.20;98.55;98543.59;5140935;27;20510;-72
2024/01/24 01:25:54;;;;;;;5.43;2.10;;;6.10;93.60;;;5.25;98.39;98542.09;5144272;27;20452;-70
2024/01/24 01:28:23;;;;;;;2.43;2.03;;;6.20;93.40;;;5.12;98.36;98530.22;5137474;27;20484;-70
2024/01/24 01:30:51;;;;;;;7.30;1.70;;;6.20;93.10;;;5.18;98.11;98543.78;5125121;27;20461;-69
2024/01/24 01:33:21;;;;;;;3.07;1.70;;;6.20;93.10;;;5.34;97.75;98524.16;5128099;27;20853;-70
2024/01/24 01:35:52;;;;;;;3.60;1.70;;;6.20;93.10;;;5.43;96.59;98518.78;5144906;27;20477;-69
2024/01/24 01:38:20;;;;;;;3.83;1.50;;;6.30;92.90;;;5.31;96.56;98521.00;5128023;27;20456;-70
2024/01/24 01:40:50;;;;;;;3.57;1.77;;;6.30;92.50;;;5.42;96.67;98519.81;5137279;27;20867;-71
2024/01/24 01:43:21;;;;;;;3.73;1.57;;;6.30;92.30;;;5.36;96.34;98510.59;5121303;27;20949;-71
2024/01/24 01:45:49;;;;;;;7.80;1.80;;;6.40;92.10;;;5.44;96.75;98517.78;5136098;27;20461;-72
2024/01/24 01:48:17;;;;;;;6.23;2.33;;;6.40;92.30;;;5.55;96.75;98521.94;5141417;27;20445;-72
2024/01/24 01:50:44;;;;;;;3.47;2.03;;;6.40;92.30;;;5.48;96.23;98511.06;5119949;27;20975;-72
2024/01/24 01:53:12;;;;;;;4.67;2.33;;;6.40;92.10;;;5.50;95.96;98509.06;5110302;27;20455;-73
2024/01/24 01:55:42;;;;;;;4.20;1.90;;;6.40;92.10;;;5.51;96.15;98518.75;5113933;27;20470;-71
2024/01/24 01:58:12;;;;;;;4.13;1.70;;;6.40;92.10;;;5.64;95.27;98511.03;5126742;27;20852;-70
2024/01/24 02:00:41;;;;;;;6.53;2.67;;;6.50;91.90;;;5.53;95.49;98500.66;5126796;27;20996;-71
2024/01/24 02:03:09;;;;;;;6.30;1.73;;;6.50;91.70;;;5.55;95.91;98505.88;5117634;27;20460;-71
2024/01/24 02:05:39;;;;;;;4.10;1.77;;;6.50;91.90;;;5.56;95.32;98500.34;5117486;27;21020;-70
2024/01/24 02:08:08;;;;;;;9.37;2.10;;;6.50;91.70;;;5.67;95.35;98508.00;5145682;27;20462;-70
2024/01/24 02:10:35;;;;;;;3.23;1.70;;;6.60;91.80;;;5.79;94.42;98494.22;5122451;27;20493;-72
2024/01/24 02:13:03;;;;;;;4.20;1.63;;;6.60;91.50;;;5.73;93.72;98495.75;5138297;27;20449;-71
2024/01/24 02:15:33;;;;;;;5.77;1.80;;;6.60;91.20;;;5.89;93.66;98491.34;5133786;27;20548;-70
2024/01/24 02:18:00;;;;;;;2.73;1.50;;;6.70;91.30;;;5.76;93.55;98489.22;5124481;27;20443;-71
2024/01/24 02:20:34;;;;;;;4.83;1.83;;;6.70;90.90;;;5.90;93.17;98485.81;5147916;27;20449;-70
2024/01/24 02:23:02;;;;;;;7.80;1.37;;;6.80;90.90;;;5.89;92.59;98470.75;5136974;27;21208;-71
2024/01/24 02:25:31;;;;;;;3.87;1.57;;;6.80;90.60;;;5.85;93.13;98464.06;5146875;27;20471;-70
2024/01/24 02:27:58;;;;;;;4.03;1.50;;;6.80;90.60;;;5.96;92.30;98458.28;5142184;27;20446;-70
2024/01/24 02:30:27;;;;;;;2.70;1.63;;;6.90;90.50;;;6.01;92.03;98454.28;5124646;27;20453;-72
2024/01/24 02:32:57;;;;;;;4.57;1.57;;;6.90;90.40;;;6.04;92.26;98459.31;5120116;27;20454;-71
2024/01/24 02:35:27;;;;;;;4.77;1.40;;;6.90;90.40;;;6.20;90.89;98461.06;5138451;27;20469;-72
2024/01/24 02:37:55;;;;;;;3.83;1.50;;;7.00;90.10;;;5.90;90.99;98402.69;5140957;27;20446;-70
2024/01/24 02:40:24;;;;;;;2.10;1.20;;;7.10;90.00;;;6.19;90.80;98462.91;5141338;27;20452;-72
2024/01/24 02:42:53;;;;;;;4.33;2.00;;;7.10;89.40;;;6.22;90.92;98465.25;5126728;27;20546;-70
2024/01/24 02:45:21;;;;;;;3.60;1.63;;;7.10;89.30;;;6.32;90.56;98445.41;5126865;27;20454;-71
2024/01/24 02:47:49;;;;;;;5.13;1.10;;;7.20;89.60;;;6.37;90.07;98432.28;5119909;27;20454;-70
2024/01/24 02:50:19;;;;;;;4.33;1.60;;;7.20;89.10;;;6.41;89.72;98427.41;5137097;27;20467;-70
2024/01/24 02:52:47;;;;;;;3.50;1.23;;;7.30;88.80;;;6.34;90.13;98438.81;5140403;27;20457;-71
2024/01/24 02:55:16;;;;;;;2.37;1.20;;;7.30;89.10;;;6.40;90.32;98415.81;5145966;27;20537;-71
2024/01/24 02:57:44;;;;;;;4.13;1.40;;;7.20;89.10;;;6.44;89.97;98427.03;5125002;27;20962;-70
2024/01/24 03:00:20;;;;;;;2.23;1.40;;;7.30;89.20;;;6.43;89.96;98409.25;5141722;27;20474;-69
2024/01/24 03:02:47;;;;;;;5.80;2.03;;;7.30;89.00;;;6.57;89.53;98391.53;5131203;27;20534;-70
2024/01/24 03:05:15;;;;;;;3.57;1.37;;;7.40;88.90;;;6.61;89.68;98398.22;5127016;27;20445;-69
2024/01/24 03:07:44;;;;;;;4.53;1.40;;;7.40;89.30;;;6.58;89.57;98403.94;5115755;27;20965;-69
2024/01/24 03:10:11;;;;;;;6.60;1.40;;;7.40;89.10;;;6.61;90.03;98417.03;5133649;27;20466;-71
2024/01/24 03:12:42;;;;;;;3.83;1.63;;;7.40;89.30;;;6.63;90.30;98414.97;5111469;27;20454;-71
2024/01/24 03:15:10;;;;;;;4.30;2.13;;;7.50;89.20;;;6.76;90.09;98417.91;5129712;27;20581;-71
2024/01/24 03:17:39;;;;;;;5.40;3.00;;;7.50;89.80;;;6.78;90.57;98415.88;5138168;27;20824;-71
2024/01/24 03:20:10;;;;;;;3.37;1.73;;;7.60;90.10;;;6.85;91.18;98418.66;5138034;27;21050;-71
2024/01/24 03:22:41;;;;;;;9.30;1.40;;;7.60;90.20;;;7.10;92.08;98429.16;5117228;27;20550;-69
2024/01/24 03:25:15;;;;;;;3.60;1.20;;;7.80;91.00;;;7.33;92.43;98426.41;5119829;27;20469;-70
2024/01/24 03:27:42;;;;;;;3.07;1.00;;;8.10;91.10;;;7.58;91.76;98426.13;5140465;27;20444;-70
2024/01/24 03:30:11;;;;;;;4.67;0.83;;;8.30;91.00;;;7.77;91.23;98415.81;5127238;27;20427;-71
2024/01/24 03:32:42;;;;;;;1.37;0.63;;;8.50;90.80;;;7.97;91.49;98421.44;5145211;27;20464;-71
2024/01/24 03:35:10;;;;;;;3.20;1.10;;;8.70;90.80;;;8.14;90.28;98422.06;5131204;27;20897;-71
2024/01/24 03:37:37;;;;;;;3.03;0.90;;;8.90;90.40;;;8.26;90.02;98418.88;5139449;27;20495;-71
2024/01/24 03:40:06;;;;;;;4.20;1.00;;;9.00;90.10;;;8.16;90.12;98425.41;5144091;27;20812;-71
2024/01/24 03:42:35;;;;;;;4.27;1.23;;;9.10;90.00;;;8.33;89.88;98441.31;5127137;27;20501;-70
2024/01/24 03:45:04;;;;;;;1.93;0.90;;;9.10;90.00;;;8.02;88.27;98348.25;5140925;27;20861;-71
2024/01/24 03:47:31;;;;;;;3.90;0.90;;;9.30;89.50;;;8.44;88.63;98400.44;5110082;27;20443;-70
2024/01/24 03:50:02;;;;;;;5.13;0.93;;;9.30;89.40;;;8.43;88.95;98398.78;5127011;27;20816;-71
2024/01/24 03:52:30;;;;;;;2.93;1.30;;;9.30;89.30;;;8.50;88.34;98385.41;5146855;27;20509;-71
2024/01/24 03:54:57;;;;;;;3.67;0.90;;;9.40;89.20;;;8.47;88.74;98377.66;5127038;27;20851;-71
2024/01/24 03:57:24;;;;;;;3.83;1.03;;;9.40;89.10;;;8.54;88.38;98386.69;5146388;27;21048;-72
2024/01/24 03:59:51;;;;;;;3.00;1.30;;;9.40;89.00;;;8.61;87.79;98394.81;5126403;27;20463;-71
2024/01/24 04:02:18;;;;;;;4.20;1.53;;;9.40;88.90;;;8.62;88.26;98393.78;5135734;27;20483;-71
2024/01/24 04:04:46;;;;;;;6.50;1.13;;;9.50;88.70;;;8.31;87.08;98357.22;5117535;27;20805;-71
2024/01/24 04:07:15;;;;;;;2.10;0.90;;;9.50;88.40;;;8.61;87.43;98405.59;5125191;27;20924;-73
2024/01/24 04:09:43;;;;;;;3.70;1.10;;;9.50;88.40;;;8.64;87.71;98410.59;5132226;27;20460;-71
2024/01/24 04:12:10;;;;;;;3.60;1.40;;;9.50;88.40;;;8.65;87.59;98409.56;5144767;27;20458;-71
2024/01/24 04:14:38;;;;;;;1.87;0.90;;;9.50;88.30;;;8.69;87.69;98402.75;5145656;27;20463;-72
2024/01/24 04:17:08;;;;;;;2.60;1.20;;;9.50;88.20;;;8.33;86.91;98339.00;5115581;27;20967;-71
2024/01/24 04:19:36;;;;;;;3.10;1.50;;;9.60;88.30;;;8.79;86.50;98397.88;5143452;27;20458;-70
2024/01/24 04:22:04;;;;;;;4.10;1.17;;;9.60;88.20;;;8.79;86.69;98418.56;5115801;27;20460;-70
2024/01/24 04:24:33;;;;;;;1.10;0.83;;;9.60;88.10;;;8.88;86.52;98408.53;5119140;27;21179;-71
2024/01/24 04:27:03;;;;;;;4.77;1.00;;;9.70;88.20;;;8.88;86.75;98416.59;5123885;27;20467;-70
2024/01/24 04:29:31;;;;;;;3.00;1.13;;;9.70;88.10;;;8.95;86.19;98420.16;5146163;27;20463;-71
2024/01/24 04:32:04;;;;;;;2.77;1.03;;;9.80;88.00;;;9.00;85.58;98419.59;5130031;27;20454;-71
2024/01/24 04:34:31;;;;;;;2.93;1.00;;;9.80;88.00;;;9.06;85.47;98400.78;5120338;27;20448;-72
2024/01/24 04:37:01;;;;;;;4.67;1.10;;;9.90;87.70;;;9.16;85.42;98405.81;5119652;27;20466;-71
2024/01/24 04:39:30;;;;;;;1.83;1.00;;;10.00;86.60;;;9.17;85.71;98412.88;5138665;27;20446;-69
2024/01/24 04:42:01;;;;;;;2.57;1.00;;;10.10;86.60;;;9.24;85.09;98421.00;5134176;27;20482;-71
2024/01/24 04:44:30;;;;;;;5.13;1.20;;;10.10;86.20;;;9.29;84.74;98413.16;5141642;27;21023;-71
2024/01/24 04:46:57;;;;;;;1.83;0.60;;;10.10;86.10;;;9.29;84.21;98401.56;5134542;27;21017;-71
2024/01/24 04:49:24;;;;;;;1.60;0.80;;;10.20;85.90;;;9.09;83.25;98352.91;5123394;27;21029;-70
2024/01/24 04:51:52;;;;;;;3.90;1.13;;;10.30;85.70;;;9.39;83.80;98401.19;5109303;27;20505;-71
2024/01/24 04:54:23;;;;;;;3.40;1.20;;;10.20;86.00;;;9.45;83.10;98406.63;5136592;27;20483;-70
2024/01/24 04:56:50;;;;;;;5.30;1.40;;;10.20;85.60;;;9.14;83.15;98347.72;5138431;27;20485;-70
2024/01/24 04:59:19;;;;;;;3.20;1.77;;;10.30;85.60;;;9.40;83.59;98394.75;5124961;27;20450;-69
2024/01/24 05:01:48;;;;;;;3.80;1.30;;;10.30;85.60;;;9.46;83.36;98392.09;5145400;27;20467;-70
2024/01/24 05:04:15;;;;;;;4.30;1.30;;;10.30;85.50;;;9.54;83.32;98387.56;5124192;27;20946;-70
2024/01/24 05:06:46;;;;;;;0.93;0.73;;;10.40;85.40;;;9.54;83.06;98382.16;5131850;27;20683;-72
2024/01/24 05:09:14;;;;;;;2.00;1.20;;;10.40;85.40;;;9.58;83.16;98378.88;5136972;27;20516;-72
2024/01/24 05:11:47;;;;;;;5.43;1.83;;;10.40;85.50;;;9.49;84.02;98380.09;5137817;27;20452;-72
2024/01/24 05:14:16;;;;;;;2.43;0.90;;;10.40;85.50;;;9.39;84.31;98341.88;5141429;27;20456;-69
2024/01/24 05:16:45;;;;;;;3.13;1.10;;;10.30;85.60;;;9.38;84.31;98351.81;5124229;27;20476;-70
2024/01/24 05:19:12;;;;;;;1.90;0.93;;;10.30;85.70;;;9.48;85.03;98368.47;5141385;27;20474;-69
2024/01/24 05:21:41;;;;;;;4.90;1.80;;;10.30;85.80;;;9.48;84.87;98340.69;5134153;27;20446;-71
2024/01/24 05:24:10;;;;;;;4.73;0.90;;;10.30;85.80;;;9.52;84.59;98335.69;5122068;27;20512;-72
2024/01/24 05:26:38;;;;;;;1.80;1.00;;;10.30;85.70;;;9.50;84.72;98331.31;5117216;27;20446;-71
2024/01/24 05:29:06;;;;;;;7.83;1.23;;;10.40;85.80;;;9.53;84.32;98331.97;5140589;27;20453;-72
2024/01/24 05:31:34;;;;;;;2.40;1.00;;;10.40;85.80;;;9.57;83.91;98341.34;5128699;27;20799;-72
2024/01/24 05:34:08;;;;;;;2.83;1.23;;;10.40;85.50;;;9.59;83.87;98340.06;5124609;27;20449;-71
2024/01/24 05:36:38;;;;;;;1.90;0.83;;;10.50;85.60;;;9.54;84.03;98336.31;5142121;27;20476;-72
2024/01/24 05:39:07;;;;;;;2.97;1.10;;;10.50;85.40;;;9.58;83.51;98334.91;5136230;27;20703;-73
2024/01/24 05:41:35;;;;;;;1.43;0.60;;;10.40;85.40;;;9.61;83.50;98327.22;5126722;27;20959;-70
2024/01/24 05:44:16;;;;;;;4.77;0.90;;;10.50;85.40;;;9.61;83.38;98329.09;5138391;27;20464;-75
2024/01/24 05:46:44;;;;;;;3.53;1.23;;;10.50;85.30;;;9.51;83.52;98313.28;5090240;27;20463;-70
2024/01/24 05:49:16;;;;;;;2.93;1.30;;;10.40;85.10;;;9.62;83.27;98320.78;5131306;27;20464;-73
2024/01/24 05:54:26;;;;;;;4.00;1.00;;;10.50;85.00;;;9.68;82.81;98315.63;5140055;27;20452;-74
2024/01/24 05:56:53;;;;;;;3.27;0.93;;;10.60;85.00;;;9.55;82.99;98303.75;5116675;27;20590;-72
2024/01/24 05:59:21;;;;;;;3.70;1.00;;;10.50;85.00;;;9.66;82.43;98323.09;5132607;27;20468;-71
2024/01/24 06:01:49;;;;;;;1.30;0.83;;;10.50;85.10;;;9.46;82.42;98288.78;5104781;27;20827;-73
2024/01/24 06:04:21;;;;;;;3.10;0.80;;;10.50;85.00;;;9.67;82.52;98300.47;5097118;27;20450;-74
2024/01/24 06:06:50;;;;;;;2.70;1.00;;;10.50;85.00;;;9.69;82.72;98293.00;5125920;27;20457;-72
2024/01/24 06:09:20;;;;;;;2.80;1.00;;;10.60;85.10;;;9.80;82.67;98305.94;5144624;27;20444;-74
2024/01/24 06:11:48;;;;;;;2.30;0.90;;;10.60;85.20;;;9.78;82.70;98318.75;5141516;27;20449;-73
2024/01/24 06:14:15;;;;;;;2.93;1.13;;;10.60;85.10;;;9.79;83.35;98306.97;5120826;27;20477;-73
2024/01/24 06:16:45;;;;;;;2.77;1.40;;;10.60;85.40;;;9.72;84.19;98303.41;5139394;27;20516;-73
2024/01/24 06:19:13;;;;;;;2.30;1.20;;;10.60;85.50;;;9.73;84.00;98299.66;5139593;27;20455;-73
2024/01/24 06:21:43;;;;;;;1.23;0.90;;;10.60;85.60;;;9.73;83.78;98283.47;5140962;27;20464;-73
2024/01/24 06:24:11;;;;;;;2.00;1.17;;;10.60;85.70;;;9.77;84.55;98292.81;5132035;27;20477;-74
2024/01/24 06:26:38;;;;;;;4.40;1.23;;;10.60;85.80;;;9.83;84.04;98302.81;5129475;27;20474;-74
2024/01/24 06:29:06;;;;;;;1.80;1.00;;;10.70;85.80;;;9.87;83.61;98297.84;5119500;27;20806;-75
2024/01/24 06:31:33;;;;;;;3.70;1.10;;;10.70;85.70;;;9.83;85.08;98304.66;5141851;27;20447;-74
2024/01/24 06:34:01;;;;;;;1.10;1.00;;;10.70;86.30;;;9.53;87.85;98278.84;5118996;27;20547;-72
2024/01/24 06:36:29;;;;;;;1.90;1.10;;;10.60;87.20;;;9.62;88.51;98293.81;5144269;27;21058;-73
2024/01/24 06:38:57;;;;;;;2.10;1.43;;;10.50;87.80;;;9.66;90.40;98313.13;5121694;27;20564;-75
2024/01/24 06:41:25;;;;;;;1.47;1.33;;;10.50;89.30;;;9.58;91.12;98319.53;5124619;27;21041;-72
2024/01/24 06:43:52;;;;;;;4.33;2.63;;;10.40;89.90;;;9.69;90.67;98306.50;5138917;27;20445;-72
2024/01/24 06:46:22;;;;;;;4.20;2.13;;;10.50;90.00;;;9.67;91.13;98308.56;5139737;27;20452;-74
2024/01/24 06:48:49;;;;;;;2.17;1.20;;;10.50;90.20;;;9.66;90.37;98306.91;5138311;27;20535;-73
2024/01/24 06:51:17;;;;;;;4.43;1.97;;;10.50;90.00;;;9.26;90.92;98245.56;5121375;27;20456;-73
2024/01/24 06:53:44;;;;;;;6.10;2.00;;;10.50;89.90;;;9.67;90.71;98285.09;5140629;27;20459;-72
2024/01/24 06:56:12;;;;;;;1.63;1.27;;;10.50;90.20;;;9.65;90.66;98289.88;5117714;27;20492;-72
2024/01/24 06:58:40;;;;;;;3.03;1.40;;;10.50;90.20;;;9.67;90.57;98300.47;5138617;27;20455;-73
2024/01/24 07:01:07;;;;;;;3.73;1.73;;;10.50;90.20;;;9.58;91.14;98287.16;5144670;27;20482;-73
2024/01/24 07:03:35;;;;;;;2.40;1.47;;;10.40;90.20;;;9.57;90.87;98282.81;5130268;27;20779;-72
2024/01/24 07:06:05;;;;;;;3.47;1.20;;;10.40;90.20;;;9.60;90.83;98279.69;5121749;27;20457;-71
2024/01/24 07:08:33;;;;;;;2.50;1.27;;;10.50;90.10;;;9.61;91.19;98285.94;5136105;27;20949;-72
2024/01/24 07:11:01;;;;;;;2.40;1.50;;;10.40;90.20;;;9.71;90.42;98296.34;5135111;27;20491;-73
2024/01/24 07:13:31;;;;;;;2.90;1.53;;;10.50;90.10;;;9.70;90.00;98308.97;5137350;27;20457;-72
2024/01/24 07:16:00;;;;;;;3.73;1.67;;;10.50;90.00;;;9.81;89.76;98302.19;5120067;27;21034;-73
2024/01/24 07:18:27;;;;;;;3.50;1.10;;;10.60;89.90;;;9.88;89.81;98313.00;5129161;27;20505;-72
2024/01/24 07:20:55;;;;;;;1.60;1.10;;;10.60;89.80;;;9.98;89.21;98313.41;5138035;27;20814;-73
2024/01/24 07:23:22;;;;;;;1.60;1.27;;;10.70;89.50;;;9.95;88.73;98305.75;5118240;27;20458;-72
2024/01/24 07:25:50;;;;;;;3.93;0.97;;;10.70;89.30;;;10.03;88.42;98312.81;5135716;27;21011;-72
2024/01/24 07:28:18;;;;;;;2.37;1.10;;;10.80;89.50;;;9.90;88.82;98302.81;5140506;27;20459;-72
2024/01/24 07:30:46;;;;;;;2.87;1.00;;;10.80;89.20;;;9.90;89.32;98292.84;5121272;28;20940;-73
2024/01/24 07:33:15;;;;;;;2.50;1.63;;;10.70;89.30;;;9.96;89.21;98287.69;5120839;27;20921;-74
2024/01/24 07:35:42;;;;;;;2.47;1.60;;;10.80;89.80;;;10.14;88.99;98281.66;5138688;27;20459;-74
2024/01/24 07:38:10;;;;;;;4.10;1.03;;;10.90;90.00;;;10.06;89.84;98282.69;5137631;27;20479;-76
2024/01/24 07:40:37;;;;;;;2.63;1.30;;;10.90;89.80;;;10.07;89.92;98279.81;5127959;27;20463;-75
2024/01/24 07:43:05;;;;;;;1.60;1.00;;;10.90;90.00;;;10.17;88.97;98295.59;5121665;27;20492;-74
2024/01/24 07:45:32;;;;;;;2.97;1.10;;;11.00;89.90;;;9.87;89.42;98239.28;5148498;27;20455;-75
2024/01/24 07:48:01;;;;;;;3.43;1.40;;;11.00;89.90;;;9.78;90.07;98235.09;5148017;27;20452;-74
2024/01/24 07:50:28;;;;;;;1.30;0.80;;;11.00;90.00;;;10.25;89.33;98297.28;5149234;27;20796;-77
2024/01/24 07:52:56;;;;;;;1.93;0.90;;;11.00;90.00;;;10.17;89.76;98290.19;5140680;27;20968;-74
2024/01/24 07:55:23;;;;;;;4.40;1.30;;;11.00;90.10;;;10.11;90.92;98284.78;5148784;27;20946;-75
2024/01/24 07:57:50;;;;;;;1.03;0.80;;;10.90;90.10;;;10.23;90.38;98293.09;5139979;27;20833;-74
2024/01/24 08:00:18;;;;;;;2.10;1.10;;;11.00;90.10;;;10.21;90.02;98277.94;5123684;27;20956;-75
2024/01/24 08:02:46;;;;;;;4.73;1.97;;;11.00;90.00;;;10.10;90.60;98289.38;5121353;27;20462;-75
2024/01/24 08:05:15;;;;;;;4.50;1.20;;;11.00;90.10;;;10.34;89.81;98287.09;5140120;27;20455;-76
2024/01/24 08:07:42;;;;;;;2.73;1.17;;;11.10;90.10;;;10.12;90.44;98281.91;5141607;27;21011;-76
2024/01/24 08:10:11;;;;;;;2.50;1.30;;;11.00;90.10;;;10.18;90.57;98272.97;5142833;27;20512;-76
2024/01/24 08:12:39;;;;;;;1.30;1.20;;;11.00;90.20;;;10.15;91.45;98265.28;5143363;27;20540;-76
2024/01/24 08:15:07;;;;;;;1.90;1.60;;;11.00;90.30;;;9.99;92.39;98261.09;5139433;27;20593;-75
2024/01/24 08:17:36;;;;;;;6.43;1.67;;;10.90;90.50;;;10.19;92.01;98263.81;5141615;27;20469;-76
2024/01/24 08:20:08;;;;;;;1.80;1.10;;;11.00;90.80;;;10.14;92.76;98276.28;5128520;27;21191;-75
2024/01/24 08:22:37;;;;;;;3.90;1.67;;;11.00;90.90;;;10.27;91.72;98272.78;5124222;27;20448;-76
2024/01/24 08:25:06;;;;;;;3.37;1.10;;;11.00;91.00;;;10.20;93.94;98278.97;5143904;27;20454;-76
2024/01/24 08:27:34;;;;;;;3.17;1.90;;;11.00;91.60;;;10.12;95.15;98284.59;5142523;27;20460;-76
2024/01/24 08:30:02;;;;;;;2.00;0.97;;;11.00;92.10;;;10.01;96.48;98285.19;5121206;27;20451;-76
2024/01/24 08:32:30;;;;;;;0.80;0.73;;;10.90;92.50;;;10.02;97.41;98297.66;5126345;27;21025;-76
2024/01/24 08:34:58;;;;;;;3.30;1.33;;;10.90;93.00;;;10.12;95.95;98292.69;5145977;27;20459;-76
2024/01/24 08:37:25;;;;;;;2.10;1.10;;;11.00;92.90;;;10.13;96.49;98290.81;5144696;27;20487;-75
2024/01/24 08:39:53;;;;;;;1.20;1.03;;;11.00;93.00;;;10.23;97.10;98295.81;5140052;27;20461;-75
2024/01/24 08:42:21;;;;;;;1.40;1.00;;;11.00;93.20;;;10.26;96.01;98282.72;5149151;27;20463;-75
2024/01/24 08:44:48;;;;;;;3.20;1.23;;;11.10;92.80;;;10.37;95.27;98300.19;5123951;27;20455;-76
2024/01/24 08:47:15;;;;;;;1.67;1.03;;;11.20;92.70;;;10.25;96.37;98288.34;5130154;27;20458;-76
2024/01/24 08:49:43;;;;;;;1.80;0.90;;;11.10;93.00;;;10.29;96.00;98282.31;5135459;27;20460;-76
2024/01/24 08:52:10;;;;;;;2.50;0.83;;;11.20;92.70;;;10.24;96.50;98294.78;5122711;27;20996;-75
2024/01/24 08:54:37;;;;;;;1.40;1.20;;;11.10;93.00;;;10.24;96.66;98300.19;5148093;27;20956;-75
2024/01/24 08:57:06;;;;;;;2.53;1.47;;;11.10;93.20;;;10.24;97.68;98284.00;5143397;27;20476;-75
2024/01/24 08:59:33;;;;;;;1.17;0.90;;;11.10;93.50;;;10.28;97.22;98290.63;5138578;27;20451;-75
2024/01/24 09:02:04;;;;;;;1.80;1.10;;;11.10;93.30;;;10.19;97.97;98301.63;5123747;27;20529;-77
2024/01/24 09:04:32;;;;;;;0.90;0.80;;;11.10;93.60;;;10.27;98.36;98302.47;5137576;27;20787;-76
2024/01/24 09:06:59;;;;;;;3.57;1.47;;;11.10;93.90;;;10.40;97.61;98298.94;5127559;27;20452;-76
2024/01/24 09:09:29;;;;;;;2.83;1.33;;;11.20;93.80;;;10.28;97.80;98291.44;5121348;27;20448;-76
2024/01/24 09:11:56;;;;;;;2.40;1.27;;;11.20;93.70;;;10.31;98.07;98298.31;5142413;27;20457;-78
2024/01/24 09:14:25;;;;;;;2.07;0.80;;;11.20;93.50;;;10.26;99.25;98300.81;5135944;27;20517;-79
2024/01/24 09:16:52;;;;;;;1.30;0.70;;;11.10;94.00;;;10.30;98.40;98288.56;5125401;27;20469;-74
2024/01/24 09:19:20;;;;;;;2.07;0.80;;;11.20;93.80;;;10.37;97.93;98300.19;5134255;27;20457;-77
2024/01/24 09:21:47;;;;;;;1.40;0.70;;;11.20;93.90;;;10.60;96.65;98315.19;5139240;27;20465;-74
2024/01/24 09:24:14;;;;;;;0.87;0.77;;;11.30;93.40;;;10.61;96.57;98306.03;5120430;27;20451;-74
2024/01/24 09:26:41;;;;;;;0.97;0.97;;;11.40;93.10;;;10.63;96.04;98309.34;5139549;27;20547;-73
2024/01/24 09:29:12;;;;;;;1.13;0.80;;;11.50;92.60;;;10.70;95.43;98296.69;5140110;27;20457;-73
2024/01/24 09:31:43;;;;;;;2.00;0.77;;;11.50;92.40;;;10.75;95.10;98301.44;5127394;27;20459;-73
2024/01/24 09:34:12;;;;;;;1.73;0.57;;;11.60;92.20;;;10.96;93.65;98308.47;5118298;27;20447;-71
2024/01/24 09:36:39;;;;;;;1.00;0.87;;;11.70;92.10;;;11.15;92.22;98323.00;5108800;27;20454;-72
2024/01/24 09:39:09;;;;;;;0.80;0.70;;;11.80;91.70;;;11.20;91.49;98303.44;5140136;27;20481;-73
2024/01/24 09:41:42;;;;;;;0.73;0.47;;;11.90;91.10;;;11.29;90.62;98302.16;5134677;27;20455;-73
2024/01/24 09:44:11;;;;;;;3.33;0.97;;;12.10;90.80;;;11.22;91.85;98287.84;5115404;27;20566;-72
2024/01/24 09:46:40;;;;;;;0.73;0.60;;;12.10;91.00;;;11.16;93.48;98307.63;5127398;27;20449;-75
2024/01/24 09:49:08;;;;;;;1.33;0.90;;;12.00;91.50;;;10.92;97.22;98323.47;5121711;27;20825;-72
2024/01/24 09:51:36;;;;;;;0.80;0.80;;;11.90;93.00;;;10.72;100.00;98331.59;5139790;27;20469;-74
2024/01/24 09:54:06;;;;;;;0.47;0.47;;;11.70;94.70;;;10.56;100.00;98333.69;5125824;27;20973;-73
2024/01/24 09:56:35;;;;;;;0.80;0.43;;;11.50;96.70;;;10.36;100.00;98314.72;5136273;27;20438;-72
2024/01/24 09:59:04;;;;;;;1.10;0.80;;;11.40;99.90;;;10.32;100.00;98298.13;5125625;27;20481;-71
2024/01/24 10:01:34;;;;;;;0.60;0.50;;;11.30;99.90;;;10.21;100.00;98288.75;5136223;27;20457;-71
2024/01/24 10:04:03;;;;;;;0.80;0.60;;;11.20;99.90;;;10.34;100.00;98306.00;5127785;27;20446;-70
2024/01/24 10:06:32;;;;;;;0.60;0.60;;;11.20;99.90;;;10.40;100.00;98301.63;5140640;27;20458;-70
2024/01/24 10:09:00;;;;;;;1.40;0.70;;;11.20;99.90;;;10.36;100.00;98298.50;5139897;27;20469;-71
2024/01/24 10:11:28;;;;;;;2.03;0.83;;;11.20;99.90;;;10.34;100.00;98323.03;5142792;27;20447;-69
2024/01/24 10:13:57;;;;;;;2.13;0.90;;;11.20;99.90;;;10.43;100.00;98315.59;5136482;27;20444;-71
2024/01/24 10:16:25;;;;;;;0.80;0.60;;;11.20;99.90;;;10.44;100.00;98317.25;5119490;27;20535;-70
2024/01/24 10:18:54;;;;;;;1.00;0.60;;;11.20;99.90;;;10.47;100.00;98330.34;5135814;27;20487;-70
2024/01/24 10:21:23;;;;;;;1.27;0.80;;;11.20;99.90;;;10.59;100.00;98340.53;5146176;27;20470;-72
2024/01/24 10:23:50;;;;;;;1.90;0.70;;;11.30;99.90;;;10.62;100.00;98346.38;5135323;27;20447;-71
2024/01/24 10:26:17;;;;;;;0.57;0.40;;;11.40;99.90;;;10.65;100.00;98334.28;5132395;27;20452;-72
2024/01/24 10:28:45;;;;;;;0.40;0.40;;;11.50;99.90;;;10.75;100.00;98340.13;5104826;27;20505;-71
2024/01/24 10:31:13;;;;;;;0.70;0.63;;;11.60;97.90;;;10.91;100.00;98349.66;5141444;27;20483;-72
2024/01/24 10:33:40;;;;;;;0.77;0.57;;;11.70;98.20;;;10.98;100.00;98344.25;5127810;27;20464;-72